»·PEaware :: N3452E KRAL-KRNM

N3452E :: KRAL-KRNM

FLIGHT INFORMATION

Flight Status: Arrived
Operator: Privately registered:
United States
More flights under this callsign
Pilot: John C. (27555)
Aircraft: BEECH AIRCRAFT DEBONAIR BONANZA
(BE33)
More flights by this aircraft type
Origin: KRAL Riverside Mun
United States
Destination: KRNM Ramona
United States
More flights between these airports :: More routes between these airports
Route: RAL1 PDZ V186 ROBNN V208 JLI
File this flight plan on PilotEdge
Remarks: TEC Route ONTP13
Altitude:
(Current/Filed)
7,000ft
Speed:
(Current/Filed)
140kts
Departed: 19-Sep-20 06:48 PM
Arrived: 19-Sep-20 07:22 PM
Distance/Time
Traveled:
61nm/0:33
Distance/Time
To Go:
Arrived

Flight Plot

Page will automatically refresh every two minutes.

Flight plan parsing failed; only flown route is shown


Map Options




Map Legend


Flown Route
Filed Route
Departure Airport
Arrival Airport
Navaid (VOR, NDB)
Fix

Horizontal Profiles

Position Reports

Time Latitude Longitude Heading Altitude Ground
Speed
19-Sep-20 18:30 33.951100 -117.445844 193 819ft 0kts
19-Sep-20 18:31 33.951100 -117.445844 193 819ft 0kts
19-Sep-20 18:32 33.951100 -117.445844 193 819ft 0kts
19-Sep-20 18:33 33.951100 -117.445844 193 819ft 0kts
19-Sep-20 18:34 33.951100 -117.445844 193 819ft 0kts
19-Sep-20 18:35 33.951100 -117.445844 193 819ft 0kts
19-Sep-20 18:36 33.951100 -117.445844 193 819ft 0kts
19-Sep-20 18:37 33.951100 -117.445844 193 819ft 0kts
19-Sep-20 18:38 33.951100 -117.445844 193 819ft 0kts
19-Sep-20 18:39 33.951007 -117.445811 96 819ft 4kts
19-Sep-20 18:40 33.951860 -117.445521 103 819ft 7kts
19-Sep-20 18:41 33.951354 -117.442908 109 818ft 8kts
19-Sep-20 18:42 33.950804 -117.440017 100 818ft 9kts
19-Sep-20 18:43 33.950213 -117.436903 104 819ft 9kts
19-Sep-20 18:44 33.949940 -117.435024 51 819ft 0kts
19-Sep-20 18:45 33.949940 -117.435024 51 819ft 0kts
19-Sep-20 18:46 33.949940 -117.435024 51 819ft 0kts
19-Sep-20 18:47 33.951316 -117.438646 283 819ft 67kts
19-Sep-20 18:48 33.957233 -117.467205 281 1484ft 89kts
19-Sep-20 18:49 33.963109 -117.497641 268 2259ft 95kts
19-Sep-20 18:50 33.965575 -117.529816 275 3055ft 96kts
19-Sep-20 18:51 33.954041 -117.552954 206 3783ft 99kts
19-Sep-20 18:52 33.927413 -117.550089 129 4478ft 110kts
19-Sep-20 18:53 33.909951 -117.519083 150 5097ft 111kts
19-Sep-20 18:54 33.885499 -117.499168 152 5851ft 102kts
19-Sep-20 18:55 33.861527 -117.479623 151 6423ft 107kts
19-Sep-20 18:56 33.835536 -117.458346 150 6914ft 118kts
19-Sep-20 18:57 33.804050 -117.432726 149 6942ft 150kts
19-Sep-20 18:58 33.767909 -117.403156 149 6945ft 162kts
19-Sep-20 18:59 33.729965 -117.372114 148 6951ft 166kts
19-Sep-20 19:00 33.691604 -117.340122 148 6957ft 167kts
19-Sep-20 19:01 33.653615 -117.308425 148 6961ft 164kts
19-Sep-20 19:02 33.616212 -117.277271 148 6961ft 162kts
19-Sep-20 19:03 33.579330 -117.246578 147 6981ft 161kts
19-Sep-20 19:04 33.542345 -117.215838 147 6980ft 161kts
19-Sep-20 19:05 33.505488 -117.185214 147 6977ft 161kts
19-Sep-20 19:06 33.466926 -117.160024 169 6967ft 158kts
19-Sep-20 19:07 33.424293 -117.150199 171 6962ft 157kts
19-Sep-20 19:08 33.380922 -117.140956 172 6962ft 158kts
19-Sep-20 19:09 33.337332 -117.122029 152 6466ft 180kts
19-Sep-20 19:10 33.293560 -117.091456 152 5840ft 181kts
19-Sep-20 19:11 33.249643 -117.060974 151 5127ft 180kts
19-Sep-20 19:12 33.208501 -117.032360 151 4955ft 159kts
19-Sep-20 19:13 33.171193 -117.006546 151 4899ft 155kts
19-Sep-20 19:14 33.135449 -116.981734 151 4091ft 129kts
19-Sep-20 19:15 33.108166 -116.962292 143 3973ft 107kts
19-Sep-20 19:16 33.084965 -116.937328 126 3522ft 116kts
19-Sep-20 19:17 33.071703 -116.903634 111 2816ft 109kts
19-Sep-20 19:18 33.058736 -116.872332 148 2393ft 101kts
19-Sep-20 19:19 33.038697 -116.884638 246 2142ft 94kts
19-Sep-20 19:20 33.039020 -116.914410 280 1399ft 67kts
19-Sep-20 19:21 33.040326 -116.919938 28 1399ft 0kts
19-Sep-20 19:22 33.039763 -116.914541 100 1399ft 19kts
19-Sep-20 19:23 33.039868 -116.911617 182 1398ft 0kts

Navigation Log

Ident Type
Flight plan parsing failed, navigation log unavailable